To NAV CANADA Home Page Login to a new session Search on AWWS site Disclaimer Vers la page française équivalente Tips FAQ What's new on the site To the Forecasts and Observations / NOTAM section To "File a Flight Plan" website Publications and other links Update of the User's profile FIC Telephone Numbers My Weather Data Folder Route Weather Data Regional Weather Data Local Weather Data To the Forecasts and Observations / NOTAM section
Request Generated 04/24/2019 at 16:44:14 UTC . Weather information available at that time is displayed.

METAR/TAF

SAULT STE. MARIE/ON    

METAR CYAM 241600Z VRB03KT 15SM FEW180 FEW230 09/M01 A2998 RMK AC1CC1 SLP159=
METAR CYAM 241500Z 23004KT 200V280 15SM FEW240 07/M02 A3000 RMK CC1 SLP168=
METAR CYAM 241400Z 30004KT 15SM FEW230 05/00 A3001 RMK CC1 SLP172=

TAF CYAM 241338Z 2414/2502 28008KT P6SM FEW160
BECMG 2418/2420 22006KT
BECMG 2500/2502 VRB03KT
RMK NXT FCST BY 242000Z=
Your time UTC time
Weather data provided by Environment Canada and NAV CANADA